Time;durP1;ratioP1;P1;durP2;ratioP2;P2;SDS_P1;SDS_P2;PMS_P1;PMS_P2;Temp;Humidity;BMP_temperature;BMP_pressure;BME280_temperature;BME280_humidity;BME280_pressure;Samples;Min_cycle;Max_cycle;Signal;HPM_P1;HPM_P2
2020/12/05 00:02:16;;;;;;;241.20;226.40;;;;;;;;;;5079513;28;20181;-73
2020/12/05 00:04:43;;;;;;;92.23;86.53;;;;;;;;;;5076272;28;20251;-73
2020/12/05 00:07:10;;;;;;;117.30;111.00;;;;;;;;;;5074143;28;20316;-70
2020/12/05 00:09:37;;;;;;;123.33;115.93;;;;;;;;;;5081403;28;20200;-68
2020/12/05 00:12:06;;;;;;;281.07;263.93;;;;;;;;;;5071145;28;20205;-69
2020/12/05 00:14:32;;;;;;;139.27;131.67;;;;;;;;;;5068638;28;20213;-66
2020/12/05 14:00:22;;;;;;;421.57;393.17;;;;;;;;;;5115279;27;20597;-69
2020/12/05 14:02:48;;;;;;;381.13;357.77;;;;;;;;;;5113839;27;20189;-70
2020/12/05 14:05:15;;;;;;;514.27;477.33;;;;;;;;;;5113737;28;20174;-63
2020/12/05 14:07:41;;;;;;;600.03;555.80;;;;;;;;;;5118231;27;20181;-63
2020/12/05 14:10:08;;;;;;;478.53;447.27;;;;;;;;;;5109845;27;20554;-63
2020/12/05 14:12:35;;;;;;;370.13;346.97;;;;;;;;;;5115006;28;20204;-64
2020/12/05 14:15:02;;;;;;;456.40;426.73;;;;;;;;;;5115734;28;20188;-63
2020/12/05 14:17:28;;;;;;;378.07;355.40;;;;;;;;;;5105929;27;20208;-66
2020/12/05 14:19:55;;;;;;;395.13;370.00;;;;;;;;;;5113123;27;20650;-70
2020/12/05 14:22:22;;;;;;;679.70;624.77;;;;;;;;;;5114830;27;20294;-72
2020/12/05 14:24:48;;;;;;;497.80;462.50;;;;;;;;;;5115058;28;20178;-70
2020/12/05 14:27:15;;;;;;;373.30;349.57;;;;;;;;;;5122615;27;20710;-73
2020/12/05 14:29:41;;;;;;;415.67;388.20;;;;;;;;;;5121107;27;20185;-68
2020/12/05 14:32:08;;;;;;;366.87;345.87;;;;;;;;;;5118909;27;20182;-68
2020/12/05 14:34:35;;;;;;;428.50;403.47;;;;;;;;;;5122695;27;20173;-72
2020/12/05 14:37:02;;;;;;;640.80;597.10;;;;;;;;;;5114837;27;20185;-70
2020/12/05 14:39:29;;;;;;;268.47;255.10;;;;;;;;;;5110260;27;20206;-62
2020/12/05 14:41:55;;;;;;;515.27;485.00;;;;;;;;;;5107740;27;20191;-65
2020/12/05 14:44:22;;;;;;;495.93;465.40;;;;;;;;;;5109665;27;20193;-68
2020/12/05 14:46:48;;;;;;;433.87;409.33;;;;;;;;;;5111850;27;20183;-69
2020/12/05 14:49:15;;;;;;;558.00;524.33;;;;;;;;;;5114148;27;20567;-67
2020/12/05 14:51:45;;;;;;;600.70;561.93;;;;;;;;;;5114321;27;20211;-65
2020/12/05 14:54:12;;;;;;;636.37;594.63;;;;;;;;;;5090521;28;20183;-64
2020/12/05 14:56:40;;;;;;;475.87;446.73;;;;;;;;;;5111488;27;20186;-65
2020/12/05 14:59:07;;;;;;;559.00;524.40;;;;;;;;;;5111082;27;20225;-66
2020/12/05 15:01:34;;;;;;;576.27;541.07;;;;;;;;;;5112160;28;21063;-74
2020/12/05 15:04:00;;;;;;;637.67;597.03;;;;;;;;;;5093506;27;20187;-74
2020/12/05 15:06:27;;;;;;;719.90;669.57;;;;;;;;;;5116392;27;20254;-75
2020/12/05 15:08:53;;;;;;;601.63;562.90;;;;;;;;;;5113436;27;20175;-72
2020/12/05 15:11:25;;;;;;;553.43;519.20;;;;;;;;;;5102674;27;20241;-71
2020/12/05 15:13:53;;;;;;;630.83;588.53;;;;;;;;;;5101934;28;20185;-69
2020/12/05 15:16:19;;;;;;;497.40;466.93;;;;;;;;;;5097953;27;20471;-72
2020/12/05 15:18:46;;;;;;;446.87;421.57;;;;;;;;;;5100916;28;20206;-71
2020/12/05 15:21:13;;;;;;;516.27;485.07;;;;;;;;;;5099354;28;20238;-69
2020/12/05 15:23:40;;;;;;;505.60;476.37;;;;;;;;;;5099305;28;20746;-73
2020/12/05 15:26:07;;;;;;;654.50;611.00;;;;;;;;;;5099293;28;20812;-72
2020/12/05 15:28:33;;;;;;;648.90;606.83;;;;;;;;;;5095908;28;20201;-67
2020/12/05 15:31:00;;;;;;;623.30;583.00;;;;;;;;;;5095637;27;20181;-68
2020/12/05 15:33:27;;;;;;;613.20;573.43;;;;;;;;;;5091839;28;20919;-74
2020/12/05 15:36:03;;;;;;;503.90;473.73;;;;;;;;;;5092406;28;20296;-73
2020/12/05 15:38:35;;;;;;;455.03;428.30;;;;;;;;;;5099882;27;20654;-74
2020/12/05 15:41:04;;;;;;;611.87;572.17;;;;;;;;;;5100396;27;20178;-68
2020/12/05 15:43:31;;;;;;;545.63;511.67;;;;;;;;;;5103898;27;20189;-71
2020/12/05 15:45:58;;;;;;;623.30;583.27;;;;;;;;;;5105674;27;20171;-69
2020/12/05 15:48:24;;;;;;;602.87;564.33;;;;;;;;;;5091065;28;20215;-70
2020/12/05 15:50:51;;;;;;;630.40;589.67;;;;;;;;;;5093209;28;20187;-72
2020/12/05 15:53:17;;;;;;;412.83;391.53;;;;;;;;;;5089405;27;20186;-71
2020/12/05 15:55:44;;;;;;;711.93;664.97;;;;;;;;;;5090667;28;20209;-70
2020/12/05 15:58:11;;;;;;;483.63;456.90;;;;;;;;;;5097544;28;20189;-76
2020/12/05 16:00:37;;;;;;;733.87;683.13;;;;;;;;;;5099710;27;20186;-70
2020/12/05 16:03:04;;;;;;;586.80;551.30;;;;;;;;;;5091451;28;20188;-72
2020/12/05 16:05:32;;;;;;;578.87;543.40;;;;;;;;;;5092295;28;20182;-71
2020/12/05 16:07:58;;;;;;;645.00;605.30;;;;;;;;;;5100191;28;20174;-71
2020/12/05 16:10:25;;;;;;;546.50;515.33;;;;;;;;;;5098364;27;20900;-75
2020/12/05 16:12:53;;;;;;;568.07;534.03;;;;;;;;;;5099665;28;20178;-72
2020/12/05 16:15:19;;;;;;;671.10;625.83;;;;;;;;;;5105429;28;20180;-72
2020/12/05 16:17:46;;;;;;;607.83;568.97;;;;;;;;;;5099487;28;20870;-71
2020/12/05 16:20:13;;;;;;;611.63;572.93;;;;;;;;;;5098815;27;20213;-67
2020/12/05 16:22:39;;;;;;;490.10;462.57;;;;;;;;;;5098485;27;20243;-75
2020/12/05 16:25:06;;;;;;;542.63;508.50;;;;;;;;;;5101110;27;20175;-73
2020/12/05 16:27:35;;;;;;;597.83;560.67;;;;;;;;;;5099447;28;20265;-70
2020/12/05 16:30:01;;;;;;;636.90;594.77;;;;;;;;;;5102705;27;20295;-71
2020/12/05 16:32:28;;;;;;;572.37;537.23;;;;;;;;;;5096053;27;20180;-70
2020/12/05 16:34:55;;;;;;;571.77;536.10;;;;;;;;;;5099960;28;20595;-72
2020/12/05 16:37:23;;;;;;;546.20;512.53;;;;;;;;;;5099691;28;20192;-72
2020/12/05 16:39:50;;;;;;;409.27;385.23;;;;;;;;;;5097732;28;20202;-73
2020/12/05 16:42:17;;;;;;;338.93;320.73;;;;;;;;;;5098348;27;20182;-70
2020/12/05 16:44:44;;;;;;;581.17;543.00;;;;;;;;;;5097564;27;20364;-73
2020/12/05 16:47:11;;;;;;;618.67;577.97;;;;;;;;;;5097457;28;20182;-74
2020/12/05 16:49:37;;;;;;;529.33;495.73;;;;;;;;;;5097213;28;20187;-74
2020/12/05 16:52:04;;;;;;;393.23;372.03;;;;;;;;;;5083847;28;20184;-72
2020/12/05 16:54:30;;;;;;;526.90;494.63;;;;;;;;;;5080124;28;20185;-74
2020/12/05 16:56:57;;;;;;;416.53;393.57;;;;;;;;;;5100670;28;20187;-74
2020/12/05 16:59:24;;;;;;;380.90;358.83;;;;;;;;;;5112624;27;20231;-73
2020/12/05 17:01:54;;;;;;;519.07;486.73;;;;;;;;;;5100498;28;20218;-72
2020/12/05 17:04:21;;;;;;;345.37;325.80;;;;;;;;;;5101657;28;20254;-72
2020/12/05 17:06:48;;;;;;;613.27;569.83;;;;;;;;;;5102038;28;20184;-72
2020/12/05 17:09:18;;;;;;;328.77;310.20;;;;;;;;;;5101314;28;20994;-73
2020/12/05 17:11:44;;;;;;;400.40;377.20;;;;;;;;;;5101075;28;20236;-74
2020/12/05 17:14:11;;;;;;;391.17;368.57;;;;;;;;;;5100839;28;20293;-72
2020/12/05 17:16:38;;;;;;;546.23;508.87;;;;;;;;;;5100686;28;20204;-73
2020/12/05 17:19:04;;;;;;;430.13;403.70;;;;;;;;;;5100744;28;20207;-73
2020/12/05 17:21:31;;;;;;;613.03;564.13;;;;;;;;;;5100952;28;20182;-73
2020/12/05 17:23:57;;;;;;;543.07;506.80;;;;;;;;;;5103522;27;20186;-74
2020/12/05 17:26:24;;;;;;;406.33;383.20;;;;;;;;;;5101421;28;20181;-73
2020/12/05 17:28:50;;;;;;;555.23;517.63;;;;;;;;;;5100338;28;20194;-73
2020/12/05 17:31:17;;;;;;;535.67;499.73;;;;;;;;;;5119498;27;20179;-74
2020/12/05 17:33:43;;;;;;;391.17;370.10;;;;;;;;;;5099963;27;20194;-73
2020/12/05 17:36:10;;;;;;;489.63;457.53;;;;;;;;;;5103339;27;20184;-73
2020/12/05 17:38:37;;;;;;;452.43;426.47;;;;;;;;;;5100069;28;20205;-73
2020/12/05 17:41:04;;;;;;;349.13;329.17;;;;;;;;;;5112312;27;20199;-73
2020/12/05 17:43:31;;;;;;;558.13;521.17;;;;;;;;;;5121380;27;20274;-73
2020/12/05 17:45:58;;;;;;;606.47;566.10;;;;;;;;;;5120741;27;20171;-73
2020/12/05 17:48:25;;;;;;;525.93;494.33;;;;;;;;;;5120704;27;20489;-63
2020/12/05 17:50:52;;;;;;;457.80;429.10;;;;;;;;;;5120318;27;20170;-63
2020/12/05 17:53:19;;;;;;;386.53;362.87;;;;;;;;;;5119694;27;20279;-63
2020/12/05 17:55:46;;;;;;;497.60;466.13;;;;;;;;;;5110203;27;20185;-63
2020/12/05 17:58:12;;;;;;;647.73;599.13;;;;;;;;;;5099959;28;20223;-64
2020/12/05 18:00:39;;;;;;;498.67;468.30;;;;;;;;;;5113845;28;20214;-64
2020/12/05 18:03:06;;;;;;;490.60;460.03;;;;;;;;;;5105670;28;20198;-64
2020/12/05 18:05:32;;;;;;;581.10;541.80;;;;;;;;;;5099805;28;20199;-63
2020/12/05 18:07:59;;;;;;;412.03;388.57;;;;;;;;;;5099847;28;20188;-65
2020/12/05 18:10:25;;;;;;;381.97;362.33;;;;;;;;;;5100733;28;20192;-65
2020/12/05 18:12:52;;;;;;;430.63;405.73;;;;;;;;;;5100167;28;20179;-65
2020/12/05 18:15:18;;;;;;;583.00;542.57;;;;;;;;;;5100710;28;20177;-64
2020/12/05 18:17:45;;;;;;;523.40;486.67;;;;;;;;;;5102355;28;20178;-64
2020/12/05 18:20:12;;;;;;;514.00;481.93;;;;;;;;;;5100185;28;20204;-65
2020/12/05 18:22:38;;;;;;;465.57;435.93;;;;;;;;;;5099974;28;20167;-66
2020/12/05 18:25:06;;;;;;;443.90;418.77;;;;;;;;;;5100398;28;20187;-65
2020/12/05 18:27:34;;;;;;;442.77;416.90;;;;;;;;;;5100101;28;20174;-65
2020/12/05 18:30:02;;;;;;;431.27;406.47;;;;;;;;;;5107904;28;20218;-64
2020/12/05 18:32:29;;;;;;;390.70;370.13;;;;;;;;;;5115291;28;20199;-65
2020/12/05 18:34:55;;;;;;;491.43;461.33;;;;;;;;;;5117810;28;20182;-65
2020/12/05 18:37:22;;;;;;;507.37;474.87;;;;;;;;;;5120318;28;20175;-64
2020/12/05 18:39:49;;;;;;;542.40;506.87;;;;;;;;;;5101879;28;20331;-64
2020/12/05 18:42:16;;;;;;;436.90;410.77;;;;;;;;;;5120232;28;20647;-65
2020/12/05 18:44:43;;;;;;;449.47;423.67;;;;;;;;;;5117612;27;20196;-64
2020/12/05 18:47:09;;;;;;;510.07;478.27;;;;;;;;;;5124129;27;20180;-64
2020/12/05 18:49:36;;;;;;;418.83;394.10;;;;;;;;;;5124234;27;20181;-65
2020/12/05 18:52:03;;;;;;;426.03;404.67;;;;;;;;;;5123987;27;20193;-65
2020/12/05 18:54:29;;;;;;;608.37;562.70;;;;;;;;;;5121527;27;20626;-64
2020/12/05 18:56:56;;;;;;;519.27;484.70;;;;;;;;;;5103740;28;20198;-66
2020/12/05 18:59:22;;;;;;;496.93;469.17;;;;;;;;;;5107897;27;20228;-64
2020/12/05 19:01:51;;;;;;;599.23;560.30;;;;;;;;;;5120064;27;20174;-63
2020/12/05 19:04:17;;;;;;;547.57;515.03;;;;;;;;;;5103919;28;20175;-64
2020/12/05 19:06:45;;;;;;;481.50;455.23;;;;;;;;;;5103661;28;20185;-64
2020/12/05 19:09:12;;;;;;;593.93;552.93;;;;;;;;;;5103775;28;20613;-65
2020/12/05 19:11:39;;;;;;;540.27;506.63;;;;;;;;;;5103076;28;20176;-65
2020/12/05 19:14:06;;;;;;;495.07;465.30;;;;;;;;;;5103335;28;20199;-64
2020/12/05 19:16:34;;;;;;;541.73;510.33;;;;;;;;;;5102459;28;20211;-64
2020/12/05 19:19:00;;;;;;;483.40;456.20;;;;;;;;;;5102532;28;20261;-65
2020/12/05 19:21:27;;;;;;;559.90;526.57;;;;;;;;;;5105949;27;20179;-65
2020/12/05 19:23:57;;;;;;;580.17;543.90;;;;;;;;;;5103208;28;20216;-63
2020/12/05 19:26:23;;;;;;;576.70;536.60;;;;;;;;;;5103374;28;20365;-64
2020/12/05 19:28:50;;;;;;;597.33;559.27;;;;;;;;;;5103033;28;20170;-65
2020/12/05 19:31:17;;;;;;;646.43;603.87;;;;;;;;;;5120069;27;20586;-65
2020/12/05 19:33:43;;;;;;;541.90;508.20;;;;;;;;;;5106310;27;20186;-66
2020/12/05 19:36:09;;;;;;;642.40;598.53;;;;;;;;;;5102494;28;20182;-64
2020/12/05 19:38:37;;;;;;;525.20;493.10;;;;;;;;;;5102696;28;20199;-64
2020/12/05 19:41:03;;;;;;;566.20;530.73;;;;;;;;;;5102899;28;20184;-64
2020/12/05 19:43:30;;;;;;;675.13;632.23;;;;;;;;;;5103288;28;20871;-65
2020/12/05 19:45:57;;;;;;;569.90;535.33;;;;;;;;;;5102613;28;20194;-66
2020/12/05 19:48:23;;;;;;;555.50;521.93;;;;;;;;;;5102403;28;20654;-67
2020/12/05 19:50:50;;;;;;;624.73;584.87;;;;;;;;;;5102742;28;20173;-65
2020/12/05 19:53:17;;;;;;;537.13;509.93;;;;;;;;;;5102245;28;20182;-66
2020/12/05 19:55:43;;;;;;;608.57;570.77;;;;;;;;;;5102267;27;20171;-65
2020/12/05 19:58:10;;;;;;;606.23;567.67;;;;;;;;;;5101954;28;20194;-66
2020/12/05 20:00:36;;;;;;;660.40;614.00;;;;;;;;;;5101848;28;20201;-64
2020/12/05 20:03:03;;;;;;;591.57;552.57;;;;;;;;;;5088457;28;20203;-66
2020/12/05 20:05:29;;;;;;;576.63;543.70;;;;;;;;;;5082366;28;20184;-66
2020/12/05 20:07:56;;;;;;;614.07;573.37;;;;;;;;;;5082011;28;20192;-64
2020/12/05 20:11:05;;;;;;;525.47;494.20;;;;;;;;;;5082039;28;20180;-65
2020/12/05 20:13:12;;;;;;;679.77;630.03;;;;;;;;;;5070053;28;20195;-64
2020/12/05 20:15:39;;;;;;;562.43;531.33;;;;;;;;;;5081734;28;20186;-65
2020/12/05 20:18:05;;;;;;;645.30;602.00;;;;;;;;;;5081308;28;20193;-65
2020/12/05 20:20:32;;;;;;;519.53;489.17;;;;;;;;;;5081967;28;20666;-66
2020/12/05 20:22:59;;;;;;;432.03;408.80;;;;;;;;;;5081478;28;20190;-65
2020/12/05 20:25:25;;;;;;;534.40;505.20;;;;;;;;;;5110475;27;20273;-66
2020/12/05 20:27:52;;;;;;;533.57;503.90;;;;;;;;;;5103915;27;20192;-66
2020/12/05 20:30:19;;;;;;;502.47;473.57;;;;;;;;;;5112154;27;20181;-66
2020/12/05 20:32:45;;;;;;;450.20;428.37;;;;;;;;;;5110256;27;20276;-66
2020/12/05 20:35:13;;;;;;;433.93;410.20;;;;;;;;;;5104780;27;20248;-65
2020/12/05 20:37:39;;;;;;;416.50;393.60;;;;;;;;;;5101311;28;20182;-66
2020/12/05 20:40:08;;;;;;;349.83;333.50;;;;;;;;;;5101494;28;20219;-66
2020/12/05 20:42:37;;;;;;;351.87;334.53;;;;;;;;;;5100747;28;20190;-66
2020/12/05 20:45:05;;;;;;;480.20;450.53;;;;;;;;;;5101371;27;20197;-66
2020/12/05 20:47:32;;;;;;;376.07;355.47;;;;;;;;;;5103574;27;20178;-66
2020/12/05 20:49:59;;;;;;;483.07;452.93;;;;;;;;;;5096515;28;20602;-69
2020/12/05 20:52:26;;;;;;;359.57;341.93;;;;;;;;;;5080205;28;20190;-69
2020/12/05 20:54:53;;;;;;;278.13;266.43;;;;;;;;;;5084194;28;20192;-69
2020/12/05 20:57:20;;;;;;;361.00;343.30;;;;;;;;;;5098019;27;20197;-70
2020/12/05 20:59:46;;;;;;;327.20;310.77;;;;;;;;;;5106532;27;20267;-69
2020/12/05 21:02:13;;;;;;;356.70;337.40;;;;;;;;;;5114767;27;20182;-69
2020/12/05 21:04:39;;;;;;;319.63;303.60;;;;;;;;;;5091398;28;20350;-69
2020/12/05 21:07:06;;;;;;;460.97;430.03;;;;;;;;;;5100911;27;20274;-69
2020/12/05 21:09:32;;;;;;;425.07;397.93;;;;;;;;;;5100101;28;20521;-70
2020/12/05 21:11:59;;;;;;;268.57;254.87;;;;;;;;;;5090119;28;20186;-69
2020/12/05 21:14:26;;;;;;;316.37;301.23;;;;;;;;;;5083569;28;20694;-69
2020/12/05 21:16:54;;;;;;;283.90;269.83;;;;;;;;;;5093206;28;20827;-69
2020/12/05 21:19:20;;;;;;;355.73;335.50;;;;;;;;;;5098703;28;20209;-71
2020/12/05 21:21:48;;;;;;;395.97;372.40;;;;;;;;;;5099691;28;20200;-67
2020/12/05 21:24:15;;;;;;;245.37;234.70;;;;;;;;;;5096971;28;20197;-68
2020/12/05 21:26:41;;;;;;;340.97;321.10;;;;;;;;;;5098079;27;20181;-72
2020/12/05 21:29:08;;;;;;;265.73;251.83;;;;;;;;;;5100137;27;20205;-69
2020/12/05 21:31:34;;;;;;;319.03;298.13;;;;;;;;;;5117649;27;20752;-69
2020/12/05 21:34:01;;;;;;;279.00;262.57;;;;;;;;;;5098800;28;20182;-68
2020/12/05 21:36:28;;;;;;;327.23;306.17;;;;;;;;;;5089096;28;20186;-68
2020/12/05 21:38:54;;;;;;;311.57;290.87;;;;;;;;;;5094136;27;20997;-68
2020/12/05 21:41:21;;;;;;;329.83;309.90;;;;;;;;;;5090566;28;20190;-68
2020/12/05 21:43:47;;;;;;;471.83;436.87;;;;;;;;;;5099691;28;20193;-69
2020/12/05 21:46:14;;;;;;;514.53;479.03;;;;;;;;;;5099723;28;20358;-66
2020/12/05 21:48:41;;;;;;;324.20;305.10;;;;;;;;;;5099181;28;20252;-68
2020/12/05 21:51:11;;;;;;;287.30;270.27;;;;;;;;;;5093655;28;20186;-68
2020/12/05 21:53:37;;;;;;;264.43;248.77;;;;;;;;;;5088294;28;20192;-66
2020/12/05 21:56:04;;;;;;;348.97;325.97;;;;;;;;;;5099045;28;20935;-65
2020/12/05 21:58:32;;;;;;;273.77;258.23;;;;;;;;;;5098821;28;20238;-64
2020/12/05 22:00:58;;;;;;;457.60;423.23;;;;;;;;;;5104827;28;20248;-66
2020/12/05 22:03:25;;;;;;;338.67;315.83;;;;;;;;;;5097846;28;20191;-67
2020/12/05 22:05:51;;;;;;;296.43;279.07;;;;;;;;;;5098994;28;20253;-66
2020/12/05 22:08:18;;;;;;;293.53;275.90;;;;;;;;;;5099050;28;20182;-65
2020/12/05 22:10:45;;;;;;;186.40;177.10;;;;;;;;;;5104755;28;20181;-64
2020/12/05 22:13:14;;;;;;;310.73;289.47;;;;;;;;;;5117965;28;20193;-65
2020/12/05 22:15:41;;;;;;;224.43;211.73;;;;;;;;;;5098565;28;20732;-66
2020/12/05 22:18:08;;;;;;;380.30;358.33;;;;;;;;;;5100029;28;20681;-65
2020/12/05 22:20:35;;;;;;;473.97;443.53;;;;;;;;;;5100883;28;20213;-64
2020/12/05 22:23:02;;;;;;;312.63;293.50;;;;;;;;;;5102828;28;20181;-65
2020/12/05 22:25:29;;;;;;;271.57;255.87;;;;;;;;;;5102471;28;20186;-65
2020/12/05 22:27:56;;;;;;;240.67;227.23;;;;;;;;;;5105823;27;20177;-73
2020/12/05 22:30:22;;;;;;;384.23;363.93;;;;;;;;;;5112428;27;20189;-73
2020/12/05 22:32:49;;;;;;;380.83;355.73;;;;;;;;;;5112415;27;20797;-73
2020/12/05 22:35:15;;;;;;;122.03;116.33;;;;;;;;;;5103859;28;20174;-73
2020/12/05 22:37:42;;;;;;;322.13;304.40;;;;;;;;;;5103525;28;20181;-73
2020/12/05 22:40:09;;;;;;;327.53;308.83;;;;;;;;;;5102889;27;20217;-69
2020/12/05 22:42:35;;;;;;;280.00;263.20;;;;;;;;;;5104450;27;20209;-74
2020/12/05 22:45:02;;;;;;;298.43;281.87;;;;;;;;;;5104128;27;20181;-69
2020/12/05 22:47:29;;;;;;;176.70;166.50;;;;;;;;;;5097314;27;20209;-68
2020/12/05 22:49:56;;;;;;;355.53;336.03;;;;;;;;;;5064891;28;20508;-68
2020/12/05 22:52:22;;;;;;;261.73;246.97;;;;;;;;;;5081108;28;20186;-68
2020/12/05 22:54:49;;;;;;;463.43;435.17;;;;;;;;;;5096565;28;20249;-69
2020/12/05 22:57:16;;;;;;;548.50;515.00;;;;;;;;;;5100160;27;20220;-69
2020/12/05 22:59:42;;;;;;;379.10;358.40;;;;;;;;;;5100823;27;20233;-69
2020/12/05 23:02:09;;;;;;;448.57;423.60;;;;;;;;;;5104036;27;20193;-69
2020/12/05 23:04:36;;;;;;;383.87;362.93;;;;;;;;;;5103027;27;20575;-68
2020/12/05 23:07:02;;;;;;;360.37;342.33;;;;;;;;;;5091566;28;20187;-69
2020/12/05 23:09:31;;;;;;;451.93;424.73;;;;;;;;;;5086473;28;20197;-69
2020/12/05 23:11:58;;;;;;;410.07;387.10;;;;;;;;;;5098565;27;20676;-68
2020/12/05 23:14:24;;;;;;;391.27;369.67;;;;;;;;;;5098751;27;20193;-72
2020/12/05 23:16:54;;;;;;;401.93;377.20;;;;;;;;;;5100419;28;20193;-75
2020/12/05 23:19:22;;;;;;;425.33;402.10;;;;;;;;;;5100230;27;20335;-74
2020/12/05 23:21:48;;;;;;;441.93;417.77;;;;;;;;;;5095456;28;20177;-77
2020/12/05 23:24:16;;;;;;;631.03;588.43;;;;;;;;;;5081339;28;20251;-75
2020/12/05 23:26:44;;;;;;;480.93;451.50;;;;;;;;;;5096976;28;20186;-73
2020/12/05 23:29:12;;;;;;;323.37;308.07;;;;;;;;;;5091619;27;20201;-73
2020/12/05 23:32:05;;;;;;;486.43;455.73;;;;;;;;;;5102756;27;20261;-71
2020/12/05 23:34:32;;;;;;;295.40;278.93;;;;;;;;;;5096528;27;20193;-70
2020/12/05 23:36:59;;;;;;;292.60;277.13;;;;;;;;;;5099071;28;20193;-77
2020/12/05 23:39:27;;;;;;;297.27;282.60;;;;;;;;;;5100209;28;20209;-75
2020/12/05 23:41:56;;;;;;;284.43;267.17;;;;;;;;;;5101356;28;20520;-75
2020/12/05 23:44:23;;;;;;;305.60;288.90;;;;;;;;;;5101149;27;20524;-75
2020/12/05 23:46:50;;;;;;;387.50;367.47;;;;;;;;;;5102088;27;20212;-74
2020/12/05 23:49:17;;;;;;;376.37;358.07;;;;;;;;;;5101009;28;20288;-73
2020/12/05 23:51:44;;;;;;;415.23;389.20;;;;;;;;;;5099964;28;20185;-73
2020/12/05 23:54:28;;;;;;;360.50;337.97;;;;;;;;;;5092724;28;20189;-73
2020/12/05 23:56:57;;;;;;;400.00;375.50;;;;;;;;;;5093786;27;20195;-71
2020/12/05 23:59:24;;;;;;;363.07;343.20;;;;;;;;;;5103348;27;20229;-72
